WARNING - Change wsUserSettings.php: $SITE["topfolder"] from : public_html./ to: ./
Iedere zaterdag na 11 uur op radio zuidwest.

Onweer radar Meer informatie blitzortung!


Regen radar Meer informatie rain snow radar


Bezoek onze andere website:

Template documentation
and downloads


U vindt ons ook hier:

Het Weer Aktueel

UK Metoffice

European Weather Network

WeatherCloud

Weather Underground

Austria Weather Network

AWEKAS

Citizen Weather Observer Program (CWOP)

HAMweather, WeatherForYou, PWS Weather

Wetterpage 24

Roosendaal nieuws

VWKWEB

RadioZuidWestFM



METAR rapporten vliegvelden

   
EHWO - Bergen op Zoom
Gewijzigd: 26-05-2024 10:59
Motregen, Regen, Grotendeels bewolkt  
Motregen, Regen, Grotendeels bewolkt  
   Wind: ZO 5.6 km/h
Wind: ZO 5.6 km/h
Temperatuur: 16°C
Dauwpunt: 16°C
Vochtigheid: 100%
Barometer: 1014 hPa
Bewolking: Grotendeels bewolkt
Zicht: meer dan 10 km
Bewolking: Licht bewolkt 4800 ft,
Gedeeltelijk bewolkt 5800 ft,
Grotendeels bewolkt 6400 ft
EHWO 260859Z AUTO 13003KT 090V180 9999 DZRA FEW048 SCT058 BKN064 16/16 Q1014 BLU
EHWO - Woensdrecht
Gewijzigd: 26-05-2024 10:59
Motregen, Regen, Grotendeels bewolkt  
Motregen, Regen, Grotendeels bewolkt  
   Wind: ZO 5.6 km/h
Wind: ZO 5.6 km/h
Temperatuur: 16°C
Dauwpunt: 16°C
Vochtigheid: 100%
Barometer: 1014 hPa
Bewolking: Grotendeels bewolkt
Zicht: meer dan 10 km
Bewolking: Licht bewolkt 4800 ft,
Gedeeltelijk bewolkt 5800 ft,
Grotendeels bewolkt 6400 ft
EHWO 260859Z AUTO 13003KT 090V180 9999 DZRA FEW048 SCT058 BKN064 16/16 Q1014 BLU
EHWO - Steenbergen
Gewijzigd: 26-05-2024 10:59
Motregen, Regen, Grotendeels bewolkt  
Motregen, Regen, Grotendeels bewolkt  
   Wind: ZO 5.6 km/h
Wind: ZO 5.6 km/h
Temperatuur: 16°C
Dauwpunt: 16°C
Vochtigheid: 100%
Barometer: 1014 hPa
Bewolking: Grotendeels bewolkt
Zicht: meer dan 10 km
Bewolking: Licht bewolkt 4800 ft,
Gedeeltelijk bewolkt 5800 ft,
Grotendeels bewolkt 6400 ft
EHWO 260859Z AUTO 13003KT 090V180 9999 DZRA FEW048 SCT058 BKN064 16/16 Q1014 BLU
EHWO - Oud-Gastel
Gewijzigd: 26-05-2024 10:59
Motregen, Regen, Grotendeels bewolkt  
Motregen, Regen, Grotendeels bewolkt  
   Wind: ZO 5.6 km/h
Wind: ZO 5.6 km/h
Temperatuur: 16°C
Dauwpunt: 16°C
Vochtigheid: 100%
Barometer: 1014 hPa
Bewolking: Grotendeels bewolkt
Zicht: meer dan 10 km
Bewolking: Licht bewolkt 4800 ft,
Gedeeltelijk bewolkt 5800 ft,
Grotendeels bewolkt 6400 ft
EHWO 260859Z AUTO 13003KT 090V180 9999 DZRA FEW048 SCT058 BKN064 16/16 Q1014 BLU
EHWO - Oudenbosch
Gewijzigd: 26-05-2024 10:59
Motregen, Regen, Grotendeels bewolkt  
Motregen, Regen, Grotendeels bewolkt  
   Wind: ZO 5.6 km/h
Wind: ZO 5.6 km/h
Temperatuur: 16°C
Dauwpunt: 16°C
Vochtigheid: 100%
Barometer: 1014 hPa
Bewolking: Grotendeels bewolkt
Zicht: meer dan 10 km
Bewolking: Licht bewolkt 4800 ft,
Gedeeltelijk bewolkt 5800 ft,
Grotendeels bewolkt 6400 ft
EHWO 260859Z AUTO 13003KT 090V180 9999 DZRA FEW048 SCT058 BKN064 16/16 Q1014 BLU
EHWO - Rucphen
Gewijzigd: 26-05-2024 10:59
Motregen, Regen, Grotendeels bewolkt  
Motregen, Regen, Grotendeels bewolkt  
   Wind: ZO 5.6 km/h
Wind: ZO 5.6 km/h
Temperatuur: 16°C
Dauwpunt: 16°C
Vochtigheid: 100%
Barometer: 1014 hPa
Bewolking: Grotendeels bewolkt
Zicht: meer dan 10 km
Bewolking: Licht bewolkt 4800 ft,
Gedeeltelijk bewolkt 5800 ft,
Grotendeels bewolkt 6400 ft
EHWO 260859Z AUTO 13003KT 090V180 9999 DZRA FEW048 SCT058 BKN064 16/16 Q1014 BLU
EHWO - Bergen op Zoom
Gewijzigd: 26-05-2024 10:59
Motregen, Regen, Grotendeels bewolkt  
Motregen, Regen, Grotendeels bewolkt  
   Wind: ZO 5.6 km/h
Wind: ZO 5.6 km/h
Temperatuur: 16°C
Dauwpunt: 16°C
Vochtigheid: 100%
Barometer: 1014 hPa
Bewolking: Grotendeels bewolkt
Zicht: meer dan 10 km
Bewolking: Licht bewolkt 4800 ft,
Gedeeltelijk bewolkt 5800 ft,
Grotendeels bewolkt 6400 ft
EHWO 260859Z AUTO 13003KT 090V180 9999 DZRA FEW048 SCT058 BKN064 16/16 Q1014 BLU
EHWO - Fijnaart
Gewijzigd: 26-05-2024 10:59
Motregen, Regen, Grotendeels bewolkt  
Motregen, Regen, Grotendeels bewolkt  
   Wind: ZO 5.6 km/h
Wind: ZO 5.6 km/h
Temperatuur: 16°C
Dauwpunt: 16°C
Vochtigheid: 100%
Barometer: 1014 hPa
Bewolking: Grotendeels bewolkt
Zicht: meer dan 10 km
Bewolking: Licht bewolkt 4800 ft,
Gedeeltelijk bewolkt 5800 ft,
Grotendeels bewolkt 6400 ft
EHWO 260859Z AUTO 13003KT 090V180 9999 DZRA FEW048 SCT058 BKN064 16/16 Q1014 BLU
EHWO - Ossendrecht
Gewijzigd: 26-05-2024 10:59
Motregen, Regen, Grotendeels bewolkt  
Motregen, Regen, Grotendeels bewolkt  
   Wind: ZO 5.6 km/h
Wind: ZO 5.6 km/h
Temperatuur: 16°C
Dauwpunt: 16°C
Vochtigheid: 100%
Barometer: 1014 hPa
Bewolking: Grotendeels bewolkt
Zicht: meer dan 10 km
Bewolking: Licht bewolkt 4800 ft,
Gedeeltelijk bewolkt 5800 ft,
Grotendeels bewolkt 6400 ft
EHWO 260859Z AUTO 13003KT 090V180 9999 DZRA FEW048 SCT058 BKN064 16/16 Q1014 BLU

Script ontwikkeld door  Saratoga-weather.org Aangepast voor de template door  Weerstation Leuven

Apparatuur in gebruik:

Weerstation
Davis VP2

Weerprogramma
Weather Display

Weercomputer
Shuttle

Webleverancier
WeservIT

Davis VP2

Weather Display

Shuttle

WeservIT